sensor_id;sensor_type;location;lat;lon;timestamp;temperature;humidity
60039;DHT22;45916;52.734;6.544;2024-02-04T00:00:47;8.40;99.90
60039;DHT22;45916;52.734;6.544;2024-02-04T00:03:13;8.40;99.90
60039;DHT22;45916;52.734;6.544;2024-02-04T00:05:39;8.30;99.90
60039;DHT22;45916;52.734;6.544;2024-02-04T00:08:05;8.30;99.90
60039;DHT22;45916;52.734;6.544;2024-02-04T00:10:30;8.30;99.90
60039;DHT22;45916;52.734;6.544;2024-02-04T00:12:56;8.20;99.90
60039;DHT22;45916;52.734;6.544;2024-02-04T00:15:22;8.20;99.90
60039;DHT22;45916;52.734;6.544;2024-02-04T00:17:48;8.10;99.90
60039;DHT22;45916;52.734;6.544;2024-02-04T00:20:13;8.10;99.90
60039;DHT22;45916;52.734;6.544;2024-02-04T00:22:39;8.10;99.90
60039;DHT22;45916;52.734;6.544;2024-02-04T00:25:05;8.00;99.90
60039;DHT22;45916;52.734;6.544;2024-02-04T00:27:32;8.00;99.90
60039;DHT22;45916;52.734;6.544;2024-02-04T00:29:58;8.00;99.90
60039;DHT22;45916;52.734;6.544;2024-02-04T00:32:24;7.90;99.90
60039;DHT22;45916;52.734;6.544;2024-02-04T00:34:50;8.00;99.90
60039;DHT22;45916;52.734;6.544;2024-02-04T00:37:16;8.00;99.90
60039;DHT22;45916;52.734;6.544;2024-02-04T00:39:41;7.90;99.90
60039;DHT22;45916;52.734;6.544;2024-02-04T00:42:07;7.90;99.90
60039;DHT22;45916;52.734;6.544;2024-02-04T00:44:33;7.80;99.90
60039;DHT22;45916;52.734;6.544;2024-02-04T00:46:59;7.80;99.90
60039;DHT22;45916;52.734;6.544;2024-02-04T00:49:24;7.80;99.90
60039;DHT22;45916;52.734;6.544;2024-02-04T00:51:51;7.70;99.90
60039;DHT22;45916;52.734;6.544;2024-02-04T00:54:17;7.70;99.90
60039;DHT22;45916;52.734;6.544;2024-02-04T00:56:43;7.60;99.90
60039;DHT22;45916;52.734;6.544;2024-02-04T00:59:09;7.60;99.90
60039;DHT22;45916;52.734;6.544;2024-02-04T01:01:34;7.60;99.90
60039;DHT22;45916;52.734;6.544;2024-02-04T01:04:00;7.60;99.90
60039;DHT22;45916;52.734;6.544;2024-02-04T01:06:25;7.60;99.90
60039;DHT22;45916;52.734;6.544;2024-02-04T01:08:53;7.60;99.90
60039;DHT22;45916;52.734;6.544;2024-02-04T01:11:19;7.40;99.90
60039;DHT22;45916;52.734;6.544;2024-02-04T01:13:44;7.40;99.90
60039;DHT22;45916;52.734;6.544;2024-02-04T01:16:10;7.40;99.90
60039;DHT22;45916;52.734;6.544;2024-02-04T01:18:36;7.40;99.90
60039;DHT22;45916;52.734;6.544;2024-02-04T01:21:01;7.40;99.90
60039;DHT22;45916;52.734;6.544;2024-02-04T01:23:27;7.50;99.90
60039;DHT22;45916;52.734;6.544;2024-02-04T01:25:53;7.60;99.90
60039;DHT22;45916;52.734;6.544;2024-02-04T01:28:18;7.70;99.90
60039;DHT22;45916;52.734;6.544;2024-02-04T01:30:44;7.80;99.90
60039;DHT22;45916;52.734;6.544;2024-02-04T01:33:09;7.90;99.90
60039;DHT22;45916;52.734;6.544;2024-02-04T01:35:35;7.90;99.90
60039;DHT22;45916;52.734;6.544;2024-02-04T01:38:01;7.90;99.90
60039;DHT22;45916;52.734;6.544;2024-02-04T01:40:26;8.00;99.90
60039;DHT22;45916;52.734;6.544;2024-02-04T01:42:52;7.90;99.90
60039;DHT22;45916;52.734;6.544;2024-02-04T01:45:18;7.90;99.90
60039;DHT22;45916;52.734;6.544;2024-02-04T01:47:43;7.90;99.90
60039;DHT22;45916;52.734;6.544;2024-02-04T01:50:09;7.80;99.90
60039;DHT22;45916;52.734;6.544;2024-02-04T01:52:37;7.80;99.90
60039;DHT22;45916;52.734;6.544;2024-02-04T01:55:05;7.80;99.90
60039;DHT22;45916;52.734;6.544;2024-02-04T01:57:32;7.80;99.90
60039;DHT22;45916;52.734;6.544;2024-02-04T02:00:00;7.80;99.90
60039;DHT22;45916;52.734;6.544;2024-02-04T02:02:26;7.80;99.90
60039;DHT22;45916;52.734;6.544;2024-02-04T02:04:52;7.70;99.90
60039;DHT22;45916;52.734;6.544;2024-02-04T02:07:18;7.70;99.90
60039;DHT22;45916;52.734;6.544;2024-02-04T02:09:47;7.60;99.90
60039;DHT22;45916;52.734;6.544;2024-02-04T02:15:18;7.50;99.90
60039;DHT22;45916;52.734;6.544;2024-02-04T02:18:01;7.60;99.90
60039;DHT22;45916;52.734;6.544;2024-02-04T02:20:41;7.60;99.90
60039;DHT22;45916;52.734;6.544;2024-02-04T02:25:36;7.60;99.90
60039;DHT22;45916;52.734;6.544;2024-02-04T02:28:01;7.60;99.90
60039;DHT22;45916;52.734;6.544;2024-02-04T02:30:27;7.60;99.90
60039;DHT22;45916;52.734;6.544;2024-02-04T02:32:53;7.60;99.90
60039;DHT22;45916;52.734;6.544;2024-02-04T02:35:19;7.50;99.90
60039;DHT22;45916;52.734;6.544;2024-02-04T02:40:49;7.50;99.90
60039;DHT22;45916;52.734;6.544;2024-02-04T02:43:16;7.50;99.90
60039;DHT22;45916;52.734;6.544;2024-02-04T02:45:43;7.40;99.90
60039;DHT22;45916;52.734;6.544;2024-02-04T02:48:10;7.50;99.90
60039;DHT22;45916;52.734;6.544;2024-02-04T02:50:36;7.40;99.90
60039;DHT22;45916;52.734;6.544;2024-02-04T02:53:02;7.40;99.90
60039;DHT22;45916;52.734;6.544;2024-02-04T02:55:28;7.40;99.90
60039;DHT22;45916;52.734;6.544;2024-02-04T02:57:53;7.40;99.90
60039;DHT22;45916;52.734;6.544;2024-02-04T03:00:19;7.30;99.90
60039;DHT22;45916;52.734;6.544;2024-02-04T03:02:45;7.30;99.90
60039;DHT22;45916;52.734;6.544;2024-02-04T03:05:12;7.20;99.90
60039;DHT22;45916;52.734;6.544;2024-02-04T03:07:38;7.20;99.90
60039;DHT22;45916;52.734;6.544;2024-02-04T03:10:04;7.20;99.90
60039;DHT22;45916;52.734;6.544;2024-02-04T03:12:30;7.20;99.90
60039;DHT22;45916;52.734;6.544;2024-02-04T03:14:56;7.20;99.90
60039;DHT22;45916;52.734;6.544;2024-02-04T03:17:21;7.20;99.90
60039;DHT22;45916;52.734;6.544;2024-02-04T03:19:48;7.20;99.90
60039;DHT22;45916;52.734;6.544;2024-02-04T03:22:14;7.20;99.90
60039;DHT22;45916;52.734;6.544;2024-02-04T03:24:40;7.20;99.90
60039;DHT22;45916;52.734;6.544;2024-02-04T03:27:07;7.20;99.90
60039;DHT22;45916;52.734;6.544;2024-02-04T03:29:32;7.20;99.90
60039;DHT22;45916;52.734;6.544;2024-02-04T03:31:59;7.10;99.90
60039;DHT22;45916;52.734;6.544;2024-02-04T03:34:24;7.10;99.90
60039;DHT22;45916;52.734;6.544;2024-02-04T03:36:50;7.10;99.90
60039;DHT22;45916;52.734;6.544;2024-02-04T03:39:16;7.00;99.90
60039;DHT22;45916;52.734;6.544;2024-02-04T03:41:41;7.00;99.90
60039;DHT22;45916;52.734;6.544;2024-02-04T03:44:07;7.00;99.90
60039;DHT22;45916;52.734;6.544;2024-02-04T03:46:33;7.00;99.90
60039;DHT22;45916;52.734;6.544;2024-02-04T03:48:58;7.10;99.90
60039;DHT22;45916;52.734;6.544;2024-02-04T03:51:24;7.10;99.90
60039;DHT22;45916;52.734;6.544;2024-02-04T03:53:50;7.10;99.90
60039;DHT22;45916;52.734;6.544;2024-02-04T03:56:17;7.00;99.90
60039;DHT22;45916;52.734;6.544;2024-02-04T03:58:43;7.00;99.90
60039;DHT22;45916;52.734;6.544;2024-02-04T04:01:12;7.00;99.90
60039;DHT22;45916;52.734;6.544;2024-02-04T04:03:41;7.10;99.90
60039;DHT22;45916;52.734;6.544;2024-02-04T04:06:08;7.10;99.90
60039;DHT22;45916;52.734;6.544;2024-02-04T04:08:34;7.10;99.90
60039;DHT22;45916;52.734;6.544;2024-02-04T04:11:00;7.20;99.90
60039;DHT22;45916;52.734;6.544;2024-02-04T04:13:26;7.10;99.90
60039;DHT22;45916;52.734;6.544;2024-02-04T04:15:51;7.20;99.90
60039;DHT22;45916;52.734;6.544;2024-02-04T04:18:17;7.20;99.90
60039;DHT22;45916;52.734;6.544;2024-02-04T04:20:43;7.20;99.90
60039;DHT22;45916;52.734;6.544;2024-02-04T04:23:09;7.20;99.90
60039;DHT22;45916;52.734;6.544;2024-02-04T04:25:34;7.30;99.90
60039;DHT22;45916;52.734;6.544;2024-02-04T04:28:00;7.30;99.90
60039;DHT22;45916;52.734;6.544;2024-02-04T04:30:26;7.40;99.90
60039;DHT22;45916;52.734;6.544;2024-02-04T04:32:51;7.40;99.90
60039;DHT22;45916;52.734;6.544;2024-02-04T04:35:17;7.40;99.90
60039;DHT22;45916;52.734;6.544;2024-02-04T04:37:43;7.40;99.90
60039;DHT22;45916;52.734;6.544;2024-02-04T04:40:09;7.40;99.90
60039;DHT22;45916;52.734;6.544;2024-02-04T04:42:35;7.30;99.90
60039;DHT22;45916;52.734;6.544;2024-02-04T04:45:01;7.40;99.90
60039;DHT22;45916;52.734;6.544;2024-02-04T04:47:26;7.30;99.90
60039;DHT22;45916;52.734;6.544;2024-02-04T04:49:52;7.40;99.90
60039;DHT22;45916;52.734;6.544;2024-02-04T04:52:18;7.30;99.90
60039;DHT22;45916;52.734;6.544;2024-02-04T04:54:43;7.30;99.90
60039;DHT22;45916;52.734;6.544;2024-02-04T04:57:09;7.40;99.90
60039;DHT22;45916;52.734;6.544;2024-02-04T04:59:35;7.40;99.90
60039;DHT22;45916;52.734;6.544;2024-02-04T05:02:03;7.50;99.90
60039;DHT22;45916;52.734;6.544;2024-02-04T05:04:30;7.50;99.90
60039;DHT22;45916;52.734;6.544;2024-02-04T05:06:55;7.50;99.90
60039;DHT22;45916;52.734;6.544;2024-02-04T05:09:22;7.50;99.90
60039;DHT22;45916;52.734;6.544;2024-02-04T05:11:47;7.50;99.90
60039;DHT22;45916;52.734;6.544;2024-02-04T05:14:13;7.60;99.90
60039;DHT22;45916;52.734;6.544;2024-02-04T05:16:39;7.60;99.90
60039;DHT22;45916;52.734;6.544;2024-02-04T05:19:04;7.60;99.90
60039;DHT22;45916;52.734;6.544;2024-02-04T05:21:30;7.70;99.90
60039;DHT22;45916;52.734;6.544;2024-02-04T05:23:56;7.70;99.90
60039;DHT22;45916;52.734;6.544;2024-02-04T05:26:21;7.70;99.90
60039;DHT22;45916;52.734;6.544;2024-02-04T05:28:47;7.70;99.90
60039;DHT22;45916;52.734;6.544;2024-02-04T05:31:13;7.70;99.90
60039;DHT22;45916;52.734;6.544;2024-02-04T05:33:38;7.70;99.90
60039;DHT22;45916;52.734;6.544;2024-02-04T05:36:04;7.70;99.90
60039;DHT22;45916;52.734;6.544;2024-02-04T05:38:30;7.80;99.90
60039;DHT22;45916;52.734;6.544;2024-02-04T05:40:56;7.80;99.90
60039;DHT22;45916;52.734;6.544;2024-02-04T05:43:22;7.90;99.90
60039;DHT22;45916;52.734;6.544;2024-02-04T05:45:47;7.80;99.90
60039;DHT22;45916;52.734;6.544;2024-02-04T05:48:13;7.90;99.90
60039;DHT22;45916;52.734;6.544;2024-02-04T05:50:39;7.90;99.90
60039;DHT22;45916;52.734;6.544;2024-02-04T05:53:04;7.90;99.90
60039;DHT22;45916;52.734;6.544;2024-02-04T05:55:30;7.80;99.90
60039;DHT22;45916;52.734;6.544;2024-02-04T05:57:56;7.80;99.90
60039;DHT22;45916;52.734;6.544;2024-02-04T06:00:21;7.80;99.90
60039;DHT22;45916;52.734;6.544;2024-02-04T06:02:47;7.80;99.90
60039;DHT22;45916;52.734;6.544;2024-02-04T06:05:13;7.70;99.90
60039;DHT22;45916;52.734;6.544;2024-02-04T06:07:39;7.70;99.90
60039;DHT22;45916;52.734;6.544;2024-02-04T06:10:09;7.80;99.90
60039;DHT22;45916;52.734;6.544;2024-02-04T06:12:35;7.90;99.90
60039;DHT22;45916;52.734;6.544;2024-02-04T06:15:00;7.90;99.90
60039;DHT22;45916;52.734;6.544;2024-02-04T06:17:26;7.80;99.90
60039;DHT22;45916;52.734;6.544;2024-02-04T06:19:52;7.80;99.90
60039;DHT22;45916;52.734;6.544;2024-02-04T06:22:17;7.90;99.90
60039;DHT22;45916;52.734;6.544;2024-02-04T06:24:43;7.80;99.90
60039;DHT22;45916;52.734;6.544;2024-02-04T06:27:08;7.80;99.90
60039;DHT22;45916;52.734;6.544;2024-02-04T06:29:36;7.90;99.90
60039;DHT22;45916;52.734;6.544;2024-02-04T06:32:02;7.90;99.90
60039;DHT22;45916;52.734;6.544;2024-02-04T06:34:28;7.80;99.90
60039;DHT22;45916;52.734;6.544;2024-02-04T06:36:54;7.80;99.90
60039;DHT22;45916;52.734;6.544;2024-02-04T06:39:20;7.90;99.90
60039;DHT22;45916;52.734;6.544;2024-02-04T06:41:45;7.90;99.90
60039;DHT22;45916;52.734;6.544;2024-02-04T06:44:11;7.90;99.90
60039;DHT22;45916;52.734;6.544;2024-02-04T06:46:37;7.90;99.90
60039;DHT22;45916;52.734;6.544;2024-02-04T06:49:03;7.80;99.90
60039;DHT22;45916;52.734;6.544;2024-02-04T06:51:29;7.80;99.90
60039;DHT22;45916;52.734;6.544;2024-02-04T06:53:54;7.90;99.90
60039;DHT22;45916;52.734;6.544;2024-02-04T06:56:20;7.90;99.90
60039;DHT22;45916;52.734;6.544;2024-02-04T06:58:46;7.90;99.90
60039;DHT22;45916;52.734;6.544;2024-02-04T07:01:12;7.90;99.90
60039;DHT22;45916;52.734;6.544;2024-02-04T07:03:37;7.90;99.90
60039;DHT22;45916;52.734;6.544;2024-02-04T07:06:03;7.90;99.90
60039;DHT22;45916;52.734;6.544;2024-02-04T07:08:29;7.90;99.90
60039;DHT22;45916;52.734;6.544;2024-02-04T07:10:55;7.80;99.90
60039;DHT22;45916;52.734;6.544;2024-02-04T07:13:20;7.90;99.90
60039;DHT22;45916;52.734;6.544;2024-02-04T07:15:46;7.90;99.90
60039;DHT22;45916;52.734;6.544;2024-02-04T07:18:12;7.90;99.90
60039;DHT22;45916;52.734;6.544;2024-02-04T07:20:37;7.90;99.90
60039;DHT22;45916;52.734;6.544;2024-02-04T07:23:04;7.90;99.90
60039;DHT22;45916;52.734;6.544;2024-02-04T07:25:30;7.90;99.90
60039;DHT22;45916;52.734;6.544;2024-02-04T07:27:56;7.80;99.90
60039;DHT22;45916;52.734;6.544;2024-02-04T07:30:22;7.80;99.90
60039;DHT22;45916;52.734;6.544;2024-02-04T07:32:48;7.90;99.90
60039;DHT22;45916;52.734;6.544;2024-02-04T07:35:14;7.90;99.90
60039;DHT22;45916;52.734;6.544;2024-02-04T07:37:40;7.90;99.90
60039;DHT22;45916;52.734;6.544;2024-02-04T07:40:06;7.90;99.90
60039;DHT22;45916;52.734;6.544;2024-02-04T07:42:32;7.90;99.90
60039;DHT22;45916;52.734;6.544;2024-02-04T07:44:57;8.00;99.90
60039;DHT22;45916;52.734;6.544;2024-02-04T07:47:23;8.10;99.90
60039;DHT22;45916;52.734;6.544;2024-02-04T07:49:49;8.00;99.90
60039;DHT22;45916;52.734;6.544;2024-02-04T07:52:16;8.00;99.90
60039;DHT22;45916;52.734;6.544;2024-02-04T07:54:41;8.00;99.90
60039;DHT22;45916;52.734;6.544;2024-02-04T07:57:09;8.10;99.90
60039;DHT22;45916;52.734;6.544;2024-02-04T07:59:35;8.10;99.90
60039;DHT22;45916;52.734;6.544;2024-02-04T08:02:01;8.20;99.90
60039;DHT22;45916;52.734;6.544;2024-02-04T08:04:27;8.20;99.90
60039;DHT22;45916;52.734;6.544;2024-02-04T08:06:54;8.20;99.90
60039;DHT22;45916;52.734;6.544;2024-02-04T08:09:19;8.30;99.90
60039;DHT22;45916;52.734;6.544;2024-02-04T08:11:46;8.30;99.90
60039;DHT22;45916;52.734;6.544;2024-02-04T08:14:12;8.40;99.90
60039;DHT22;45916;52.734;6.544;2024-02-04T08:16:39;8.40;99.90
60039;DHT22;45916;52.734;6.544;2024-02-04T08:19:06;8.50;99.90
60039;DHT22;45916;52.734;6.544;2024-02-04T08:21:32;8.40;99.90
60039;DHT22;45916;52.734;6.544;2024-02-04T08:23:58;8.50;99.90
60039;DHT22;45916;52.734;6.544;2024-02-04T08:26:24;8.50;99.90
60039;DHT22;45916;52.734;6.544;2024-02-04T08:28:50;8.60;99.90
60039;DHT22;45916;52.734;6.544;2024-02-04T08:31:16;8.60;99.90
60039;DHT22;45916;52.734;6.544;2024-02-04T08:33:42;8.60;99.90
60039;DHT22;45916;52.734;6.544;2024-02-04T08:36:07;8.60;99.90
60039;DHT22;45916;52.734;6.544;2024-02-04T08:38:36;8.70;99.90
60039;DHT22;45916;52.734;6.544;2024-02-04T08:41:03;8.80;99.90
60039;DHT22;45916;52.734;6.544;2024-02-04T08:43:28;8.70;99.90
60039;DHT22;45916;52.734;6.544;2024-02-04T08:45:54;8.70;99.90
60039;DHT22;45916;52.734;6.544;2024-02-04T08:48:20;8.70;99.90
60039;DHT22;45916;52.734;6.544;2024-02-04T08:50:45;8.70;99.90
60039;DHT22;45916;52.734;6.544;2024-02-04T08:53:11;8.70;99.90
60039;DHT22;45916;52.734;6.544;2024-02-04T08:55:37;8.70;99.90
60039;DHT22;45916;52.734;6.544;2024-02-04T08:58:03;8.70;99.90
60039;DHT22;45916;52.734;6.544;2024-02-04T09:00:28;8.80;99.90
60039;DHT22;45916;52.734;6.544;2024-02-04T09:02:54;8.80;99.90
60039;DHT22;45916;52.734;6.544;2024-02-04T09:05:20;8.90;99.90
60039;DHT22;45916;52.734;6.544;2024-02-04T09:07:45;9.00;99.90
60039;DHT22;45916;52.734;6.544;2024-02-04T09:10:11;9.00;99.90
60039;DHT22;45916;52.734;6.544;2024-02-04T09:12:38;9.10;99.90
60039;DHT22;45916;52.734;6.544;2024-02-04T09:15:04;9.10;99.90
60039;DHT22;45916;52.734;6.544;2024-02-04T09:17:30;9.10;99.90
60039;DHT22;45916;52.734;6.544;2024-02-04T09:19:58;9.20;99.90
60039;DHT22;45916;52.734;6.544;2024-02-04T09:22:24;9.20;99.90
60039;DHT22;45916;52.734;6.544;2024-02-04T09:24:50;9.20;99.90
60039;DHT22;45916;52.734;6.544;2024-02-04T09:27:16;9.40;99.90
60039;DHT22;45916;52.734;6.544;2024-02-04T09:29:41;9.50;99.90
60039;DHT22;45916;52.734;6.544;2024-02-04T09:32:07;9.70;99.90
60039;DHT22;45916;52.734;6.544;2024-02-04T09:34:33;10.10;99.90
60039;DHT22;45916;52.734;6.544;2024-02-04T09:36:59;10.30;99.90
60039;DHT22;45916;52.734;6.544;2024-02-04T09:39:24;10.50;99.90
60039;DHT22;45916;52.734;6.544;2024-02-04T09:41:51;10.60;99.90
60039;DHT22;45916;52.734;6.544;2024-02-04T09:44:17;10.70;99.90
60039;DHT22;45916;52.734;6.544;2024-02-04T09:46:43;10.60;99.90
60039;DHT22;45916;52.734;6.544;2024-02-04T09:49:09;10.40;99.90
60039;DHT22;45916;52.734;6.544;2024-02-04T09:51:36;10.20;99.90
60039;DHT22;45916;52.734;6.544;2024-02-04T09:54:05;10.10;99.90
60039;DHT22;45916;52.734;6.544;2024-02-04T09:56:34;10.00;99.90
60039;DHT22;45916;52.734;6.544;2024-02-04T09:59:02;9.90;99.90
60039;DHT22;45916;52.734;6.544;2024-02-04T10:01:28;9.80;99.90
60039;DHT22;45916;52.734;6.544;2024-02-04T10:03:55;9.90;99.90
60039;DHT22;45916;52.734;6.544;2024-02-04T10:06:21;9.90;99.90
60039;DHT22;45916;52.734;6.544;2024-02-04T10:08:46;10.00;99.90
60039;DHT22;45916;52.734;6.544;2024-02-04T10:11:13;10.20;99.90
60039;DHT22;45916;52.734;6.544;2024-02-04T10:13:46;10.30;99.90
60039;DHT22;45916;52.734;6.544;2024-02-04T10:16:13;10.50;99.90
60039;DHT22;45916;52.734;6.544;2024-02-04T10:18:47;10.50;99.90
60039;DHT22;45916;52.734;6.544;2024-02-04T10:21:18;10.60;99.90
60039;DHT22;45916;52.734;6.544;2024-02-04T10:23:45;10.50;99.90
60039;DHT22;45916;52.734;6.544;2024-02-04T10:26:11;10.40;99.90
60039;DHT22;45916;52.734;6.544;2024-02-04T10:28:37;10.30;99.90
60039;DHT22;45916;52.734;6.544;2024-02-04T10:31:03;10.40;99.90
60039;DHT22;45916;52.734;6.544;2024-02-04T10:33:32;10.40;99.90
60039;DHT22;45916;52.734;6.544;2024-02-04T10:35:58;10.30;99.90
60039;DHT22;45916;52.734;6.544;2024-02-04T10:38:24;10.30;99.90
60039;DHT22;45916;52.734;6.544;2024-02-04T10:40:53;10.30;99.90
60039;DHT22;45916;52.734;6.544;2024-02-04T10:43:20;10.20;99.90
60039;DHT22;45916;52.734;6.544;2024-02-04T10:45:47;10.20;99.90
60039;DHT22;45916;52.734;6.544;2024-02-04T10:48:15;10.10;99.90
60039;DHT22;45916;52.734;6.544;2024-02-04T10:50:47;9.90;99.90
60039;DHT22;45916;52.734;6.544;2024-02-04T10:53:14;9.70;99.90
60039;DHT22;45916;52.734;6.544;2024-02-04T10:55:43;9.60;99.90
60039;DHT22;45916;52.734;6.544;2024-02-04T10:58:13;9.60;99.90
60039;DHT22;45916;52.734;6.544;2024-02-04T11:00:41;9.50;99.90
60039;DHT22;45916;52.734;6.544;2024-02-04T11:03:07;9.50;99.90
60039;DHT22;45916;52.734;6.544;2024-02-04T11:05:34;9.40;99.90
60039;DHT22;45916;52.734;6.544;2024-02-04T11:08:02;9.40;99.90
60039;DHT22;45916;52.734;6.544;2024-02-04T11:10:30;9.50;99.90
60039;DHT22;45916;52.734;6.544;2024-02-04T11:12:58;9.60;99.90
60039;DHT22;45916;52.734;6.544;2024-02-04T11:15:29;9.70;99.90
60039;DHT22;45916;52.734;6.544;2024-02-04T11:18:13;9.90;99.90
60039;DHT22;45916;52.734;6.544;2024-02-04T11:26:28;10.10;99.90
60039;DHT22;45916;52.734;6.544;2024-02-04T11:28:55;10.10;99.90
60039;DHT22;45916;52.734;6.544;2024-02-04T11:31:21;10.10;99.90
60039;DHT22;45916;52.734;6.544;2024-02-04T11:33:50;10.00;99.90
60039;DHT22;45916;52.734;6.544;2024-02-04T11:36:16;9.90;99.90
60039;DHT22;45916;52.734;6.544;2024-02-04T11:38:48;9.90;99.90
60039;DHT22;45916;52.734;6.544;2024-02-04T11:42:13;9.90;99.90
60039;DHT22;45916;52.734;6.544;2024-02-04T11:45:09;9.80;99.90
60039;DHT22;45916;52.734;6.544;2024-02-04T11:47:37;9.80;99.90
60039;DHT22;45916;52.734;6.544;2024-02-04T11:50:03;9.80;99.90
60039;DHT22;45916;52.734;6.544;2024-02-04T11:52:29;9.80;99.90
60039;DHT22;45916;52.734;6.544;2024-02-04T11:54:55;9.80;99.90
60039;DHT22;45916;52.734;6.544;2024-02-04T11:57:23;9.90;99.90
60039;DHT22;45916;52.734;6.544;2024-02-04T11:59:49;10.00;99.90
60039;DHT22;45916;52.734;6.544;2024-02-04T12:02:17;10.00;99.90
60039;DHT22;45916;52.734;6.544;2024-02-04T12:04:46;10.10;99.90
60039;DHT22;45916;52.734;6.544;2024-02-04T12:07:13;10.10;99.90
60039;DHT22;45916;52.734;6.544;2024-02-04T12:09:40;10.10;99.90
60039;DHT22;45916;52.734;6.544;2024-02-04T12:12:07;10.10;99.90
60039;DHT22;45916;52.734;6.544;2024-02-04T12:14:37;10.10;99.90
60039;DHT22;45916;52.734;6.544;2024-02-04T12:17:08;10.20;99.90
60039;DHT22;45916;52.734;6.544;2024-02-04T12:19:35;10.20;99.90
60039;DHT22;45916;52.734;6.544;2024-02-04T12:22:00;10.20;99.90
60039;DHT22;45916;52.734;6.544;2024-02-04T12:24:27;10.20;99.90
60039;DHT22;45916;52.734;6.544;2024-02-04T12:26:53;10.20;99.90
60039;DHT22;45916;52.734;6.544;2024-02-04T12:29:18;10.20;99.90
60039;DHT22;45916;52.734;6.544;2024-02-04T12:31:44;10.20;99.90
60039;DHT22;45916;52.734;6.544;2024-02-04T12:34:12;10.20;99.90
60039;DHT22;45916;52.734;6.544;2024-02-04T12:36:38;10.30;99.90
60039;DHT22;45916;52.734;6.544;2024-02-04T12:39:04;10.20;99.90
60039;DHT22;45916;52.734;6.544;2024-02-04T12:41:30;10.30;99.90
60039;DHT22;45916;52.734;6.544;2024-02-04T12:43:57;10.20;99.90
60039;DHT22;45916;52.734;6.544;2024-02-04T12:46:27;10.10;99.90
60039;DHT22;45916;52.734;6.544;2024-02-04T12:48:54;10.10;99.90
60039;DHT22;45916;52.734;6.544;2024-02-04T12:51:27;10.00;99.90
60039;DHT22;45916;52.734;6.544;2024-02-04T12:54:11;10.00;99.90
60039;DHT22;45916;52.734;6.544;2024-02-04T12:56:49;10.00;99.90
60039;DHT22;45916;52.734;6.544;2024-02-04T12:59:28;10.00;99.90
60039;DHT22;45916;52.734;6.544;2024-02-04T13:01:56;10.00;99.90
60039;DHT22;45916;52.734;6.544;2024-02-04T13:04:22;10.00;99.90
60039;DHT22;45916;52.734;6.544;2024-02-04T13:06:48;10.10;99.90
60039;DHT22;45916;52.734;6.544;2024-02-04T13:09:17;10.10;99.90
60039;DHT22;45916;52.734;6.544;2024-02-04T13:11:44;10.10;99.90
60039;DHT22;45916;52.734;6.544;2024-02-04T13:14:10;10.00;99.90
60039;DHT22;45916;52.734;6.544;2024-02-04T13:16:37;10.00;99.90
60039;DHT22;45916;52.734;6.544;2024-02-04T13:19:04;10.00;99.90
60039;DHT22;45916;52.734;6.544;2024-02-04T13:21:30;10.00;99.90
60039;DHT22;45916;52.734;6.544;2024-02-04T13:23:56;10.00;99.90
60039;DHT22;45916;52.734;6.544;2024-02-04T13:26:22;9.90;99.90
60039;DHT22;45916;52.734;6.544;2024-02-04T13:28:48;10.00;99.90
60039;DHT22;45916;52.734;6.544;2024-02-04T13:31:14;9.90;99.90
60039;DHT22;45916;52.734;6.544;2024-02-04T13:33:40;9.90;99.90
60039;DHT22;45916;52.734;6.544;2024-02-04T13:36:09;9.90;99.90
60039;DHT22;45916;52.734;6.544;2024-02-04T13:38:36;9.90;99.90
60039;DHT22;45916;52.734;6.544;2024-02-04T13:41:05;9.90;99.90
60039;DHT22;45916;52.734;6.544;2024-02-04T13:43:33;9.90;99.90
60039;DHT22;45916;52.734;6.544;2024-02-04T13:46:00;9.90;99.90
60039;DHT22;45916;52.734;6.544;2024-02-04T13:48:27;9.90;99.90
60039;DHT22;45916;52.734;6.544;2024-02-04T13:50:52;9.90;99.90
60039;DHT22;45916;52.734;6.544;2024-02-04T13:53:20;9.90;99.90
60039;DHT22;45916;52.734;6.544;2024-02-04T13:55:46;9.90;99.90
60039;DHT22;45916;52.734;6.544;2024-02-04T13:58:12;9.90;99.90
60039;DHT22;45916;52.734;6.544;2024-02-04T14:00:38;9.90;99.90
60039;DHT22;45916;52.734;6.544;2024-02-04T14:03:04;9.90;99.90
60039;DHT22;45916;52.734;6.544;2024-02-04T14:05:29;9.90;99.90
60039;DHT22;45916;52.734;6.544;2024-02-04T14:07:55;9.90;99.90
60039;DHT22;45916;52.734;6.544;2024-02-04T14:10:21;9.90;99.90
60039;DHT22;45916;52.734;6.544;2024-02-04T14:12:47;9.90;99.90
60039;DHT22;45916;52.734;6.544;2024-02-04T14:15:12;9.80;99.90
60039;DHT22;45916;52.734;6.544;2024-02-04T14:17:38;9.80;99.90
60039;DHT22;45916;52.734;6.544;2024-02-04T14:20:05;9.80;99.90
60039;DHT22;45916;52.734;6.544;2024-02-04T14:22:31;9.80;99.90
60039;DHT22;45916;52.734;6.544;2024-02-04T14:24:57;9.70;99.90
60039;DHT22;45916;52.734;6.544;2024-02-04T14:27:23;9.70;99.90
60039;DHT22;45916;52.734;6.544;2024-02-04T14:29:49;9.70;99.90
60039;DHT22;45916;52.734;6.544;2024-02-04T14:32:14;9.70;99.90
60039;DHT22;45916;52.734;6.544;2024-02-04T14:34:40;9.70;99.90
60039;DHT22;45916;52.734;6.544;2024-02-04T14:37:06;9.70;99.90
60039;DHT22;45916;52.734;6.544;2024-02-04T14:39:32;9.60;99.90
60039;DHT22;45916;52.734;6.544;2024-02-04T14:41:58;9.60;99.90
60039;DHT22;45916;52.734;6.544;2024-02-04T14:44:23;9.60;99.90
60039;DHT22;45916;52.734;6.544;2024-02-04T14:46:49;9.60;99.90
60039;DHT22;45916;52.734;6.544;2024-02-04T14:49:15;9.50;99.90
60039;DHT22;45916;52.734;6.544;2024-02-04T14:51:41;9.50;99.90
60039;DHT22;45916;52.734;6.544;2024-02-04T14:54:07;9.50;99.90
60039;DHT22;45916;52.734;6.544;2024-02-04T14:56:41;9.50;99.90
60039;DHT22;45916;52.734;6.544;2024-02-04T14:59:11;9.40;99.90
60039;DHT22;45916;52.734;6.544;2024-02-04T15:01:37;9.40;99.90
60039;DHT22;45916;52.734;6.544;2024-02-04T15:04:03;9.40;99.90
60039;DHT22;45916;52.734;6.544;2024-02-04T15:06:30;9.40;99.90
60039;DHT22;45916;52.734;6.544;2024-02-04T15:08:56;9.40;99.90
60039;DHT22;45916;52.734;6.544;2024-02-04T15:11:25;9.40;99.90
60039;DHT22;45916;52.734;6.544;2024-02-04T15:13:50;9.40;99.90
60039;DHT22;45916;52.734;6.544;2024-02-04T15:16:16;9.40;99.90
60039;DHT22;45916;52.734;6.544;2024-02-04T15:18:42;9.50;99.90
60039;DHT22;45916;52.734;6.544;2024-02-04T15:21:08;9.50;99.90
60039;DHT22;45916;52.734;6.544;2024-02-04T15:23:34;9.60;99.90
60039;DHT22;45916;52.734;6.544;2024-02-04T15:26:01;9.60;99.90
60039;DHT22;45916;52.734;6.544;2024-02-04T15:28:27;9.60;99.90
60039;DHT22;45916;52.734;6.544;2024-02-04T15:30:53;9.70;99.90
60039;DHT22;45916;52.734;6.544;2024-02-04T15:33:21;9.70;99.90
60039;DHT22;45916;52.734;6.544;2024-02-04T15:35:46;9.70;99.90
60039;DHT22;45916;52.734;6.544;2024-02-04T15:38:12;9.70;99.90
60039;DHT22;45916;52.734;6.544;2024-02-04T15:40:38;9.80;99.90
60039;DHT22;45916;52.734;6.544;2024-02-04T15:43:03;9.70;99.90
60039;DHT22;45916;52.734;6.544;2024-02-04T15:45:30;9.70;99.90
60039;DHT22;45916;52.734;6.544;2024-02-04T15:47:56;9.70;99.90
60039;DHT22;45916;52.734;6.544;2024-02-04T15:50:23;9.70;99.90
60039;DHT22;45916;52.734;6.544;2024-02-04T15:52:49;9.70;99.90